Date,TemperatureHighF,TemperatureAvgF,TemperatureLowF,DewpointHighF,DewpointAvgF,DewpointLowF,HumidityHigh,HumidityAvg,HumidityLow,PressureMaxIn,PressureMinIn,WindSpeedMaxMPH,WindSpeedAvgMPH,GustSpeedMaxMPH,PrecipitationSumIn
2013-5-1,42,36,30,29,26,23,81,66,58,0.00,40.00,11,4,28,0.00
2013-5-2,41,34,27,30,27,25,98,77,56,0.00,40.00,7,4,19,0.00
2013-5-3,55,40,26,31,27,24,99,64,33,0.00,40.00,6,4,20,0.00
2013-5-4,51,43,33,42,33,18,98,67,47,0.00,40.00,6,4,9,0.00
2013-5-5,50,43,29,44,41,29,99,92,79,0.00,40.00,6,2,9,0.00
2013-5-6,71,54,44,52,46,40,96,75,43,0.00,40.00,5,2,7,0.00
2013-5-7,78,61,39,55,45,39,99,63,28,0.00,40.00,6,3,21,0.00
2013-5-8,75,61,49,56,48,36,95,64,37,0.00,40.00,6,3,20,0.00
2013-5-9,70,55,37,41,35,23,73,49,27,0.00,40.00,6,4,21,0.00
2013-5-10,71,52,35,43,33,-100,97,56,29,0.00,40.00,14,5,28,0.00
2013-5-11,53,43,33,34,23,-100,84,49,26,0.00,40.00,16,6,28,0.00
2013-5-12,63,48,30,26,22,15,68,38,20,0.00,40.00,7,3,9,0.00
2013-5-13,92,66,45,50,36,23,45,34,19,0.00,40.00,16,5,28,0.00
2013-5-14,87,68,48,56,46,37,88,48,25,0.00,40.00,23,8,39,0.00
2013-5-15,84,65,44,48,43,34,85,51,21,0.00,40.00,15,3,27,0.00
2013-5-16,78,58,45,56,27,-100,87,60,29,0.00,40.00,6,3,23,0.00
2013-5-17,73,64,49,60,48,-100,89,65,43,0.00,40.00,6,-4,21,0.00
2013-5-18,87,68,50,68,60,50,99,79,40,0.00,40.00,6,4,9,1.56
2013-5-19,76,65,55,69,61,54,98,87,59,0.00,40.00,9,3,24,0.12
2013-5-20,64,58,54,63,58,53,98,98,96,0.00,40.00,4,2,9,0.07
2013-5-21,55,51,48,54,50,47,98,97,91,0.00,40.00,6,4,23,0.25
2013-5-22,75,59,47,51,45,33,97,66,22,0.00,40.00,6,3,20,0.00
2013-5-23,71,59,46,47,39,28,84,51,25,0.00,40.00,6,3,9,0.00
2013-5-24,65,54,42,53,42,31,94,67,35,0.00,40.00,15,5,27,0.00
2013-5-25,68,60,54,54,53,51,96,78,59,0.00,40.00,9,5,27,0.00
2013-5-26,60,57,54,53,49,45,90,75,56,0.00,40.00,10,5,27,0.00
2013-5-27,70,61,55,60,55,50,94,81,65,0.00,40.00,7,5,9,0.00
2013-5-28,75,63,58,60,58,57,98,85,55,0.00,40.00,6,5,19,0.00
2013-5-29,70,63,56,66,61,56,98,94,79,0.00,40.00,6,4,9,0.97
2013-5-30,78,67,60,69,64,57,98,89,54,0.00,40.00,7,4,24,0.06
2013-5-31,64,58,53,63,55,49,98,91,79,0.00,40.00,7,4,21,0.01